createdAt,value
2023-04-22T00:02:19.819Z,99923.63
2023-04-22T00:04:50.268Z,99931.59
2023-04-22T00:07:19.180Z,99929.09
2023-04-22T00:09:49.293Z,99928.38
2023-04-22T00:12:17.851Z,99924.16
2023-04-22T00:14:47.090Z,99925.22
2023-04-22T00:17:15.438Z,99930.53
2023-04-22T00:19:44.094Z,99925.50
2023-04-22T00:22:16.023Z,99923.00
2023-04-22T00:24:44.697Z,99921.41
2023-04-22T00:27:14.912Z,99922.34
2023-04-22T00:29:43.403Z,99918.16
2023-04-22T00:32:13.030Z,99921.75
2023-04-22T00:34:41.541Z,99923.56
2023-04-22T00:37:10.928Z,99920.16
2023-04-22T00:39:40.071Z,99916.75
2023-04-22T00:42:10.128Z,99918.56
2023-04-22T00:44:42.143Z,99907.44
2023-04-22T00:47:11.018Z,99907.47
2023-04-22T00:49:40.692Z,99906.75
2023-04-22T00:52:09.683Z,99921.59
2023-04-22T00:54:38.633Z,99913.03
2023-04-22T00:57:07.529Z,99916.66
2023-04-22T00:59:37.070Z,99913.19
2023-04-22T01:02:08.830Z,99915.81
2023-04-22T01:04:37.657Z,99910.63
2023-04-22T01:07:06.977Z,99907.22
2023-04-22T01:09:36.337Z,99909.00
2023-04-22T01:12:04.959Z,99910.81
2023-04-22T01:14:33.580Z,99909.22
2023-04-22T01:17:03.268Z,99904.03
2023-04-22T01:19:34.656Z,99905.84
2023-04-22T01:22:04.611Z,99905.06
2023-04-22T01:24:35.153Z,99906.06
2023-04-22T01:27:03.851Z,99907.88
2023-04-22T01:29:32.259Z,99907.97
2023-04-22T01:32:01.836Z,99904.78
2023-04-22T01:34:32.235Z,99900.50
2023-04-22T01:37:00.830Z,99896.19
2023-04-22T01:39:30.383Z,99903.94
2023-04-22T01:42:02.239Z,99903.91
2023-04-22T01:44:31.025Z,99902.22
2023-04-22T01:46:59.790Z,99903.19
2023-04-22T01:49:29.226Z,99909.34
2023-04-22T01:51:59.022Z,99904.22
2023-04-22T01:54:27.820Z,99892.25
2023-04-22T01:56:58.771Z,99899.31
2023-04-22T01:59:28.682Z,99905.56
2023-04-22T02:01:57.659Z,99915.19
2023-04-22T02:04:26.518Z,99916.16
2023-04-22T02:06:55.066Z,99910.94
2023-04-22T02:09:24.123Z,99910.97
2023-04-22T02:11:52.871Z,99908.50
2023-04-22T02:14:23.206Z,99912.06
2023-04-22T02:16:54.492Z,99909.59
2023-04-22T02:19:24.043Z,99906.13
2023-04-22T02:21:52.745Z,99903.69
2023-04-22T02:24:21.528Z,99904.59
2023-04-22T02:26:50.644Z,99896.06
2023-04-22T02:29:19.333Z,99896.91
2023-04-22T02:31:48.944Z,99901.34
2023-04-22T02:34:19.193Z,99902.31
2023-04-22T02:36:48.668Z,99898.94
2023-04-22T02:39:17.322Z,99905.19
2023-04-22T02:41:46.153Z,99900.03
2023-04-22T02:44:14.581Z,99898.41
2023-04-22T02:46:44.074Z,99897.66
2023-04-22T02:49:12.769Z,99896.84
2023-04-22T02:51:43.603Z,99897.75
2023-04-22T02:54:12.331Z,99900.34
2023-04-22T02:56:42.671Z,99896.91
2023-04-22T02:59:11.492Z,99897.78
2023-04-22T03:01:40.316Z,99896.94
2023-04-22T03:04:14.506Z,99899.56
2023-04-22T03:06:44.698Z,99908.25
2023-04-22T03:09:13.498Z,99902.25
2023-04-22T03:11:42.487Z,99902.31
2023-04-22T03:14:11.386Z,99904.13
2023-04-22T03:16:40.654Z,99905.00
2023-04-22T03:19:09.318Z,99901.56
2023-04-22T03:21:38.536Z,99909.41
2023-04-22T03:24:09.843Z,99901.72
2023-04-22T03:26:39.095Z,99909.47
2023-04-22T03:29:09.213Z,99914.72
2023-04-22T03:31:37.940Z,99917.38
2023-04-22T03:34:06.959Z,99913.03
2023-04-22T03:36:35.761Z,99916.56
2023-04-22T03:39:06.146Z,99910.50
2023-04-22T03:41:38.881Z,99918.31
2023-04-22T03:44:08.043Z,99915.75
2023-04-22T03:46:38.889Z,99914.81
2023-04-22T03:49:16.485Z,99918.22
2023-04-22T03:51:46.333Z,99925.94
2023-04-22T03:54:20.130Z,99921.56
2023-04-22T03:56:54.212Z,99917.31
2023-04-22T03:59:25.210Z,99923.38
2023-04-22T04:01:55.162Z,99920.75
2023-04-22T04:04:28.629Z,99926.72
2023-04-22T04:07:01.331Z,99927.50
2023-04-22T04:09:31.075Z,99939.53
2023-04-22T04:12:01.360Z,99939.50
2023-04-22T04:14:34.531Z,99935.09
2023-04-22T04:17:05.072Z,99936.75
2023-04-22T04:19:36.930Z,99933.19
2023-04-22T04:22:07.048Z,99944.44
2023-04-22T04:24:42.415Z,99940.84
2023-04-22T04:27:19.509Z,99941.50
2023-04-22T04:29:56.045Z,99941.31
2023-04-22T04:32:37.377Z,99929.94
2023-04-22T04:35:13.105Z,99939.34
2023-04-22T04:37:44.499Z,99947.81
2023-04-22T04:40:14.052Z,99945.13
2023-04-22T04:43:13.123Z,99947.53
2023-04-22T04:45:52.692Z,99945.63
2023-04-22T04:48:28.545Z,99949.78
2023-04-22T04:51:04.548Z,99946.03
2023-04-22T04:53:36.226Z,99946.47
2023-04-22T04:56:05.269Z,99948.75
2023-04-22T04:58:35.542Z,99945.97
2023-04-22T05:01:26.471Z,99947.59
2023-04-22T05:03:58.475Z,99942.19
2023-04-22T05:06:28.130Z,99947.97
2023-04-22T05:09:02.152Z,99946.72
2023-04-22T05:11:31.053Z,99946.47
2023-04-22T05:14:03.744Z,99957.44
2023-04-22T05:16:36.397Z,99949.25
2023-04-22T05:19:06.042Z,99943.56
2023-04-22T05:21:35.282Z,99942.91
2023-04-22T05:24:06.257Z,99947.66
2023-04-22T05:26:35.651Z,99947.28
2023-04-22T05:29:11.604Z,99946.94
2023-04-22T05:31:40.727Z,99951.69
2023-04-22T05:34:09.327Z,99951.19
2023-04-22T05:36:39.847Z,99946.34
2023-04-22T05:39:09.345Z,99945.91
2023-04-22T05:41:38.155Z,99942.75
2023-04-22T05:44:12.282Z,99947.19
2023-04-22T05:46:42.209Z,99954.38
2023-04-22T05:49:12.131Z,99953.63
2023-04-22T05:51:59.674Z,99953.63
2023-04-22T05:54:35.734Z,99943.16
2023-04-22T05:57:05.303Z,99948.09
2023-04-22T05:59:35.735Z,99947.97
2023-04-22T06:02:05.504Z,99952.91
2023-04-22T06:04:37.272Z,99954.53
2023-04-22T06:07:07.104Z,99950.81
2023-04-22T06:09:36.334Z,99954.31
2023-04-22T06:12:06.272Z,99956.91
2023-04-22T06:14:36.618Z,99960.41
2023-04-22T06:17:05.412Z,99960.38
2023-04-22T06:19:34.275Z,99949.03
2023-04-22T06:22:03.254Z,99957.72
2023-04-22T06:24:31.888Z,99946.25
2023-04-22T06:27:00.466Z,99953.00
2023-04-22T06:29:31.368Z,99957.34
2023-04-22T06:32:01.872Z,99956.16
2023-04-22T06:34:33.716Z,99955.34
2023-04-22T06:37:03.263Z,99956.22
2023-04-22T06:39:32.010Z,99951.88
2023-04-22T06:42:19.195Z,99956.13
2023-04-22T06:45:13.202Z,99950.56
2023-04-22T06:48:01.844Z,99958.56
2023-04-22T06:50:45.335Z,99953.88
2023-04-22T06:53:13.765Z,99947.84
2023-04-22T06:55:42.437Z,99951.00
2023-04-22T06:58:11.192Z,99955.81
2023-04-22T07:00:40.770Z,99950.94
2023-04-22T07:03:11.067Z,99950.09
2023-04-22T07:05:40.280Z,99963.97
2023-04-22T07:08:10.447Z,99953.34
2023-04-22T07:10:40.438Z,99956.06
2023-04-22T07:13:47.734Z,99949.16
2023-04-22T07:16:16.470Z,99959.63
2023-04-22T07:18:46.855Z,99963.53
2023-04-22T07:21:15.511Z,99965.59
2023-04-22T07:23:44.794Z,99961.28
2023-04-22T07:26:13.623Z,99970.31
2023-04-22T07:28:42.381Z,99957.38
2023-04-22T07:31:10.992Z,99962.88
2023-04-22T07:33:40.187Z,99962.09
2023-04-22T07:36:10.273Z,99953.03
2023-04-22T07:38:39.254Z,99954.66
2023-04-22T07:41:07.933Z,99956.41
2023-04-22T07:43:37.106Z,99949.28
2023-04-22T07:46:06.012Z,99944.59
2023-04-22T07:48:34.756Z,99951.91
2023-04-22T07:51:03.487Z,99949.88
2023-04-22T07:53:33.665Z,99955.19
2023-04-22T07:56:03.662Z,99949.16
2023-04-22T07:58:32.764Z,99950.41
2023-04-22T08:01:02.054Z,99946.16
2023-04-22T08:03:31.138Z,99946.13
2023-04-22T08:06:01.544Z,99952.38
2023-04-22T08:08:30.244Z,99952.22
2023-04-22T08:11:00.287Z,99955.69
2023-04-22T08:13:28.895Z,99952.28
2023-04-22T08:15:58.048Z,99946.22
2023-04-22T08:18:27.312Z,99951.44
2023-04-22T08:20:56.373Z,99952.78
2023-04-22T08:23:25.399Z,99952.13
2023-04-22T08:25:54.147Z,99948.50
2023-04-22T08:28:24.930Z,99946.44
2023-04-22T08:30:54.045Z,99943.47
2023-04-22T08:33:23.087Z,99937.13
2023-04-22T08:35:52.601Z,99951.38
2023-04-22T08:38:21.649Z,99946.88
2023-04-22T08:40:51.126Z,99942.84
2023-04-22T08:43:20.345Z,99939.41
2023-04-22T08:45:52.045Z,99940.91
2023-04-22T08:48:21.345Z,99937.28
2023-04-22T08:50:50.459Z,99938.97
2023-04-22T08:53:19.754Z,99942.03
2023-04-22T08:55:50.463Z,99944.41
2023-04-22T08:58:19.434Z,99945.69
2023-04-22T09:00:50.055Z,99929.41
2023-04-22T09:03:20.016Z,99940.06
2023-04-22T09:05:52.096Z,99944.84
2023-04-22T09:08:21.330Z,99935.09
2023-04-22T09:10:50.839Z,99931.63
2023-04-22T09:13:20.666Z,99936.91
2023-04-22T09:15:50.836Z,99925.25
2023-04-22T09:18:20.303Z,99925.22
2023-04-22T09:20:51.443Z,99930.41
2023-04-22T09:23:20.248Z,99928.72
2023-04-22T09:25:49.178Z,99919.09
2023-04-22T09:28:19.851Z,99916.69
2023-04-22T09:30:50.188Z,99915.63
2023-04-22T09:33:18.762Z,99924.63
2023-04-22T09:35:47.926Z,99921.72
2023-04-22T09:38:16.849Z,99928.63
2023-04-22T09:40:47.595Z,99911.75
2023-04-22T09:43:20.084Z,99917.72
2023-04-22T09:45:50.296Z,99912.63
2023-04-22T09:48:20.874Z,99907.50
2023-04-22T09:50:52.035Z,99904.19
2023-04-22T09:53:22.517Z,99906.19
2023-04-22T09:55:53.332Z,99903.63
2023-04-22T09:58:25.996Z,99910.81
2023-04-22T10:00:58.266Z,99900.28
2023-04-22T10:03:27.585Z,99898.75
2023-04-22T10:05:56.294Z,99896.19
2023-04-22T10:08:25.071Z,99895.41
2023-04-22T10:10:55.807Z,99887.97
2023-04-22T10:13:24.774Z,99892.03
2023-04-22T10:15:57.027Z,99891.41
2023-04-22T10:18:28.813Z,99891.56
2023-04-22T10:20:59.176Z,99888.69
2023-04-22T10:23:28.059Z,99897.00
2023-04-22T10:25:57.836Z,99889.06
2023-04-22T10:28:30.834Z,99887.88
2023-04-22T10:31:01.376Z,99882.25
2023-04-22T10:33:40.701Z,99880.13
2023-04-22T10:36:11.437Z,99870.41
2023-04-22T10:38:42.771Z,99869.28
2023-04-22T10:41:15.749Z,99875.03
2023-04-22T10:43:46.155Z,99875.34
2023-04-22T10:47:02.933Z,99876.19
2023-04-22T10:49:35.372Z,99876.31
2023-04-22T10:52:06.653Z,99870.84
2023-04-22T10:54:59.289Z,99863.19
2023-04-22T10:57:42.406Z,99865.34
2023-04-22T11:00:21.085Z,99860.69
2023-04-22T11:02:56.107Z,99862.56
2023-04-22T11:05:27.506Z,99861.75
2023-04-22T11:08:02.832Z,99851.69
2023-04-22T11:10:34.442Z,99868.94
2023-04-22T11:13:03.428Z,99858.53
2023-04-22T11:15:32.893Z,99858.00
2023-04-22T11:18:03.414Z,99862.75
2023-04-22T11:20:32.330Z,99854.09
2023-04-22T11:23:01.969Z,99849.25
2023-04-22T11:25:30.510Z,99849.88
2023-04-22T11:27:59.839Z,99854.44
2023-04-22T11:30:32.481Z,99857.13
2023-04-22T11:33:03.562Z,99852.94
2023-04-22T11:35:34.006Z,99840.19
2023-04-22T11:38:05.050Z,99839.78
2023-04-22T11:40:39.548Z,99850.22
2023-04-22T11:43:10.857Z,99849.47
2023-04-22T11:45:41.296Z,99855.16
2023-04-22T11:48:13.278Z,99842.44
2023-04-22T11:50:44.633Z,99842.97
2023-04-22T11:53:16.285Z,99841.25
2023-04-22T11:55:46.266Z,99840.94
2023-04-22T11:58:16.560Z,99834.34
2023-04-22T12:00:47.359Z,99843.13
2023-04-22T12:03:19.802Z,99843.41
2023-04-22T12:05:51.518Z,99839.63
2023-04-22T12:08:21.633Z,99833.00
2023-04-22T12:10:52.285Z,99842.03
2023-04-22T12:13:22.707Z,99834.00
2023-04-22T12:15:56.271Z,99834.69
2023-04-22T12:18:32.951Z,99833.72
2023-04-22T12:21:02.599Z,99829.31
2023-04-22T12:23:42.393Z,99829.03
2023-04-22T12:26:11.339Z,99825.28
2023-04-22T12:28:40.653Z,99830.31
2023-04-22T12:31:09.925Z,99826.97
2023-04-22T12:33:40.939Z,99825.69
2023-04-22T12:36:10.640Z,99825.16
2023-04-22T12:38:39.559Z,99820.88
2023-04-22T12:41:09.453Z,99819.44
2023-04-22T12:43:39.572Z,99817.41
2023-04-22T12:46:10.166Z,99815.38
2023-04-22T12:48:40.519Z,99808.97
2023-04-22T12:51:09.268Z,99803.47
2023-04-22T12:53:38.248Z,99816.41
2023-04-22T12:56:09.706Z,99812.69
2023-04-22T12:58:38.347Z,99814.28
2023-04-22T13:01:07.167Z,99794.03
2023-04-22T13:03:35.960Z,99798.69
2023-04-22T13:06:06.762Z,99798.31
2023-04-22T13:08:37.187Z,99798.63
2023-04-22T13:11:05.791Z,99793.19
2023-04-22T13:13:34.206Z,99794.53
2023-04-22T13:16:05.289Z,99798.75
2023-04-22T13:18:36.657Z,99790.66
2023-04-22T13:21:07.720Z,99794.75
2023-04-22T13:23:40.143Z,99794.94
2023-04-22T13:26:08.734Z,99788.84
2023-04-22T13:28:37.408Z,99787.94
2023-04-22T13:31:06.409Z,99783.66
2023-04-22T13:33:35.011Z,99786.59
2023-04-22T13:36:03.656Z,99778.88
2023-04-22T13:38:34.328Z,99778.75
2023-04-22T13:41:03.442Z,99777.63
2023-04-22T13:43:32.357Z,99779.28
2023-04-22T13:46:03.040Z,99779.22
2023-04-22T13:48:32.467Z,99788.91
2023-04-22T13:51:01.370Z,99783.09
2023-04-22T13:53:30.037Z,99777.13
2023-04-22T13:55:59.999Z,99772.66
2023-04-22T13:58:29.381Z,99787.66
2023-04-22T14:00:58.154Z,99779.13
2023-04-22T14:03:28.590Z,99779.56
2023-04-22T14:05:57.460Z,99779.63
2023-04-22T14:08:26.314Z,99775.09
2023-04-22T14:10:56.406Z,99773.94
2023-04-22T14:13:28.581Z,99775.53
2023-04-22T14:15:57.357Z,99770.59
2023-04-22T14:18:27.006Z,99767.16
2023-04-22T14:20:55.943Z,99774.22
2023-04-22T14:23:25.018Z,99771.25
2023-04-22T14:25:54.098Z,99776.31
2023-04-22T14:28:23.378Z,99768.69
2023-04-22T14:30:53.805Z,99760.09
2023-04-22T14:33:24.355Z,99762.25
2023-04-22T14:35:53.336Z,99763.31
2023-04-22T14:38:23.865Z,99761.72
2023-04-22T14:40:52.872Z,99767.63
2023-04-22T14:43:21.776Z,99759.22
2023-04-22T14:45:50.592Z,99759.47
2023-04-22T14:48:21.223Z,99761.44
2023-04-22T14:50:50.137Z,99756.41
2023-04-22T14:53:18.702Z,99760.19
2023-04-22T14:55:47.730Z,99767.72
2023-04-22T14:58:16.472Z,99761.97
2023-04-22T15:00:45.492Z,99753.34
2023-04-22T15:03:14.319Z,99747.28
2023-04-22T15:05:44.490Z,99752.84
2023-04-22T15:08:15.485Z,99754.19
2023-04-22T15:10:44.020Z,99746.69
2023-04-22T15:13:12.446Z,99752.84
2023-04-22T15:15:41.435Z,99750.56
2023-04-22T15:18:14.905Z,99746.56
2023-04-22T15:20:48.030Z,99748.66
2023-04-22T15:23:16.844Z,99747.22
2023-04-22T15:25:46.208Z,99740.03
2023-04-22T15:28:15.836Z,99743.03
2023-04-22T15:30:44.719Z,99748.81
2023-04-22T15:33:13.556Z,99746.88
2023-04-22T15:35:45.330Z,99741.50
2023-04-22T15:38:17.975Z,99739.16
2023-04-22T15:40:47.317Z,99739.72
2023-04-22T15:43:16.197Z,99740.94
2023-04-22T15:45:44.991Z,99731.84
2023-04-22T15:48:13.923Z,99734.34
2023-04-22T15:50:42.936Z,99736.06
2023-04-22T15:53:11.787Z,99733.66
2023-04-22T15:55:41.854Z,99727.38
2023-04-22T15:58:10.546Z,99728.75
2023-04-22T16:00:42.005Z,99722.28
2023-04-22T16:03:11.614Z,99735.06
2023-04-22T16:05:40.653Z,99732.13
2023-04-22T16:08:09.432Z,99725.25
2023-04-22T16:10:38.058Z,99732.22
2023-04-22T16:13:09.293Z,99727.88
2023-04-22T16:15:38.531Z,99730.63
2023-04-22T16:18:07.689Z,99727.78
2023-04-22T16:20:36.931Z,99728.75
2023-04-22T16:23:06.359Z,99720.59
2023-04-22T16:25:36.224Z,99723.66
2023-04-22T16:28:04.928Z,99724.91
2023-04-22T16:30:35.401Z,99728.09
2023-04-22T16:33:04.108Z,99726.38
2023-04-22T16:35:33.138Z,99721.53
2023-04-22T16:38:03.856Z,99717.53
2023-04-22T16:40:33.011Z,99716.88
2023-04-22T16:43:05.607Z,99718.19
2023-04-22T16:45:35.666Z,99725.84
2023-04-22T16:48:04.989Z,99718.63
2023-04-22T16:50:33.702Z,99724.72
2023-04-22T16:53:05.020Z,99727.06
2023-04-22T16:55:35.092Z,99722.25
2023-04-22T16:58:05.626Z,99705.00
2023-04-22T17:00:35.672Z,99719.25
2023-04-22T17:03:04.417Z,99718.94
2023-04-22T17:05:33.329Z,99717.84
2023-04-22T17:08:02.622Z,99717.16
2023-04-22T17:10:32.716Z,99719.41
2023-04-22T17:13:01.682Z,99713.66
2023-04-22T17:15:30.704Z,99716.31
2023-04-22T17:18:02.199Z,99717.84
2023-04-22T17:20:32.142Z,99712.06
2023-04-22T17:23:01.033Z,99721.91
2023-04-22T17:25:29.799Z,99714.38
2023-04-22T17:27:58.728Z,99720.63
2023-04-22T17:30:27.431Z,99723.59
2023-04-22T17:32:56.157Z,99724.56
2023-04-22T17:35:27.093Z,99721.97
2023-04-22T17:37:57.988Z,99719.63
2023-04-22T17:40:27.038Z,99724.97
2023-04-22T17:42:55.567Z,99723.19
2023-04-22T17:45:24.660Z,99730.09
2023-04-22T17:47:54.080Z,99730.16
2023-04-22T17:50:23.601Z,99724.03
2023-04-22T17:52:53.882Z,99734.63
2023-04-22T17:55:22.642Z,99729.53
2023-04-22T17:57:51.514Z,99737.34
2023-04-22T18:00:20.220Z,99745.16
2023-04-22T18:02:49.103Z,99740.72
2023-04-22T18:05:18.154Z,99749.38
2023-04-22T18:07:47.626Z,99752.72
2023-04-22T18:10:18.548Z,99749.97
2023-04-22T18:12:47.352Z,99745.47
2023-04-22T18:15:15.966Z,99758.97
2023-04-22T18:17:44.546Z,99751.78
2023-04-22T18:20:20.644Z,99751.28
2023-04-22T18:22:52.279Z,99746.59
2023-04-22T18:25:24.374Z,99754.16
2023-04-22T18:27:55.474Z,99746.75
2023-04-22T18:30:25.202Z,99747.34
2023-04-22T18:32:54.383Z,99750.25
2023-04-22T18:35:23.766Z,99745.69
2023-04-22T18:37:53.078Z,99751.41
2023-04-22T18:40:23.784Z,99752.84
2023-04-22T18:42:52.354Z,99761.31
2023-04-22T18:45:23.232Z,99753.97
2023-04-22T18:47:52.201Z,99759.63
2023-04-22T18:50:22.485Z,99758.28
2023-04-22T18:52:51.359Z,99763.84
2023-04-22T18:55:20.679Z,99760.75
2023-04-22T18:57:50.954Z,99763.75
2023-04-22T19:00:20.149Z,99764.09
2023-04-22T19:02:49.055Z,99762.75
2023-04-22T19:05:18.480Z,99764.03
2023-04-22T19:07:48.335Z,99749.16
2023-04-22T19:10:17.052Z,99758.56
2023-04-22T19:12:45.644Z,99748.72
2023-04-22T19:15:20.052Z,99754.09
2023-04-22T19:17:49.070Z,99753.88
2023-04-22T19:20:17.765Z,99759.81
2023-04-22T19:22:46.392Z,99757.97
2023-04-22T19:25:16.191Z,99752.28
2023-04-22T19:27:44.879Z,99747.31
2023-04-22T19:30:15.273Z,99757.22
2023-04-22T19:32:45.791Z,99754.91
2023-04-22T19:35:16.634Z,99747.38
2023-04-22T19:37:45.894Z,99761.63
2023-04-22T19:40:18.007Z,99757.50
2023-04-22T19:42:48.212Z,99757.75
2023-04-22T19:45:17.377Z,99761.31
2023-04-22T19:47:48.357Z,99759.72
2023-04-22T19:50:19.318Z,99761.44
2023-04-22T19:52:49.022Z,99763.97
2023-04-22T19:55:18.433Z,99763.56
2023-04-22T19:57:48.218Z,99753.66
2023-04-22T20:00:17.781Z,99762.00
2023-04-22T20:02:48.915Z,99762.41
2023-04-22T20:05:19.299Z,99759.13
2023-04-22T20:07:49.183Z,99752.38
2023-04-22T20:10:18.248Z,99759.72
2023-04-22T20:12:47.635Z,99754.69
2023-04-22T20:15:16.956Z,99757.63
2023-04-22T20:17:47.787Z,99759.63
2023-04-22T20:20:18.031Z,99757.16
2023-04-22T20:22:47.966Z,99762.53
2023-04-22T20:25:18.408Z,99754.22
2023-04-22T20:27:47.436Z,99770.88
2023-04-22T20:30:16.781Z,99761.53
2023-04-22T20:32:46.601Z,99760.97
2023-04-22T20:35:18.018Z,99758.75
2023-04-22T20:37:48.038Z,99754.78
2023-04-22T20:40:19.090Z,99767.22
2023-04-22T20:42:47.775Z,99756.19
2023-04-22T20:45:18.149Z,99759.03
2023-04-22T20:47:47.349Z,99762.72
2023-04-22T20:50:17.476Z,99758.53
2023-04-22T20:52:46.493Z,99753.44
2023-04-22T20:55:16.073Z,99759.59
2023-04-22T20:57:45.115Z,99756.97
2023-04-22T21:00:14.718Z,99753.72
2023-04-22T21:02:44.102Z,99754.66
2023-04-22T21:05:13.612Z,99750.06
2023-04-22T21:07:46.919Z,99749.00
2023-04-22T21:10:16.189Z,99755.22
2023-04-22T21:12:45.572Z,99751.59
2023-04-22T21:15:15.510Z,99747.00
2023-04-22T21:17:52.065Z,99747.84
2023-04-22T21:20:23.746Z,99755.63
2023-04-22T21:22:55.804Z,99752.31
2023-04-22T21:25:25.236Z,99752.53
2023-04-22T21:27:54.410Z,99755.28
2023-04-22T21:30:24.168Z,99751.28
2023-04-22T21:32:52.736Z,99762.00
2023-04-22T21:35:23.878Z,99756.78
2023-04-22T21:37:53.802Z,99760.38
2023-04-22T21:40:24.470Z,99761.44
2023-04-22T21:42:52.968Z,99765.06
2023-04-22T21:45:21.695Z,99758.25
2023-04-22T21:47:50.129Z,99762.59
2023-04-22T21:50:20.786Z,99755.66
2023-04-22T21:52:50.582Z,99766.13
2023-04-22T21:55:19.571Z,99765.28
2023-04-22T21:57:49.427Z,99765.34
2023-04-22T22:00:18.747Z,99765.47
2023-04-22T22:02:49.548Z,99774.38
2023-04-22T22:05:18.231Z,99773.75
2023-04-22T22:07:46.693Z,99764.34
2023-04-22T22:10:18.380Z,99768.81
2023-04-22T22:12:48.432Z,99756.69
2023-04-22T22:15:19.082Z,99762.00
2023-04-22T22:17:48.221Z,99762.06
2023-04-22T22:20:18.203Z,99762.13
2023-04-22T22:22:47.254Z,99753.38
2023-04-22T22:25:17.160Z,99756.84
2023-04-22T22:27:47.324Z,99757.69
2023-04-22T22:30:16.952Z,99763.00
2023-04-22T22:32:47.138Z,99756.91
2023-04-22T22:35:16.700Z,99757.06
2023-04-22T22:37:45.966Z,99777.19
2023-04-22T22:40:14.601Z,99764.38
2023-04-22T22:42:43.984Z,99769.75
2023-04-22T22:45:13.211Z,99770.81
2023-04-22T22:47:42.188Z,99770.16
2023-04-22T22:50:12.693Z,99767.75
2023-04-22T22:52:41.426Z,99769.66
2023-04-22T22:55:10.385Z,99764.75
2023-04-22T22:57:39.488Z,99774.63
2023-04-22T23:00:12.115Z,99767.84
2023-04-22T23:02:40.802Z,99770.69
2023-04-22T23:05:11.900Z,99768.16
2023-04-22T23:07:40.367Z,99771.66
2023-04-22T23:10:10.158Z,99772.66
2023-04-22T23:12:38.630Z,99764.97
2023-04-22T23:15:09.086Z,99764.97
2023-04-22T23:17:38.766Z,99764.91
2023-04-22T23:20:10.138Z,99770.13
2023-04-22T23:22:41.168Z,99759.91
2023-04-22T23:25:11.144Z,99756.47
2023-04-22T23:27:40.765Z,99757.44
2023-04-22T23:30:10.359Z,99756.75
2023-04-22T23:32:41.399Z,99758.81
2023-04-22T23:35:14.243Z,99755.50
2023-04-22T23:37:46.534Z,99759.03
2023-04-22T23:40:15.333Z,99755.66
2023-04-22T23:42:43.938Z,99754.84
2023-04-22T23:45:13.095Z,99756.63
2023-04-22T23:47:42.366Z,99752.38
2023-04-22T23:50:14.168Z,99754.19
2023-04-22T23:52:44.300Z,99752.50
2023-04-22T23:55:16.157Z,99750.81
2023-04-22T23:57:45.142Z,99755.16
